sensor_id;sensor_type;location;lat;lon;timestamp;temperature;humidity
45233;DHT22;30969;51.052;17.056;2023-02-01T00:04:17;3.90;86.60
45233;DHT22;30969;51.052;17.056;2023-02-01T00:09:20;3.80;87.70
45233;DHT22;30969;51.052;17.056;2023-02-01T00:14:24;3.90;86.40
45233;DHT22;30969;51.052;17.056;2023-02-01T00:19:28;4.00;86.10
45233;DHT22;30969;51.052;17.056;2023-02-01T00:24:32;4.10;86.00
45233;DHT22;30969;51.052;17.056;2023-02-01T00:29:37;4.10;86.30
45233;DHT22;30969;51.052;17.056;2023-02-01T00:34:42;4.30;86.20
45233;DHT22;30969;51.052;17.056;2023-02-01T00:39:45;4.40;85.80
45233;DHT22;30969;51.052;17.056;2023-02-01T00:44:49;4.50;85.70
45233;DHT22;30969;51.052;17.056;2023-02-01T00:49:54;4.50;85.30
45233;DHT22;30969;51.052;17.056;2023-02-01T00:54:57;4.50;85.50
45233;DHT22;30969;51.052;17.056;2023-02-01T01:00:01;4.50;85.70
45233;DHT22;30969;51.052;17.056;2023-02-01T01:05:06;4.50;85.80
45233;DHT22;30969;51.052;17.056;2023-02-01T01:10:10;4.50;85.60
45233;DHT22;30969;51.052;17.056;2023-02-01T01:15:14;4.60;85.30
45233;DHT22;30969;51.052;17.056;2023-02-01T01:20:19;4.70;84.90
45233;DHT22;30969;51.052;17.056;2023-02-01T01:25:24;4.80;84.70
45233;DHT22;30969;51.052;17.056;2023-02-01T01:30:27;4.90;84.70
45233;DHT22;30969;51.052;17.056;2023-02-01T01:35:33;4.80;84.10
45233;DHT22;30969;51.052;17.056;2023-02-01T01:40:36;4.70;84.20
45233;DHT22;30969;51.052;17.056;2023-02-01T01:45:40;4.50;85.00
45233;DHT22;30969;51.052;17.056;2023-02-01T01:50:48;4.30;85.80
45233;DHT22;30969;51.052;17.056;2023-02-01T01:55:54;4.30;86.50
45233;DHT22;30969;51.052;17.056;2023-02-01T02:00:59;4.30;87.20
45233;DHT22;30969;51.052;17.056;2023-02-01T02:06:07;4.40;87.40
45233;DHT22;30969;51.052;17.056;2023-02-01T02:11:16;4.40;87.50
45233;DHT22;30969;51.052;17.056;2023-02-01T02:16:51;4.50;87.70
45233;DHT22;30969;51.052;17.056;2023-02-01T02:22:15;4.50;88.00
45233;DHT22;30969;51.052;17.056;2023-02-01T02:27:30;4.50;87.90
45233;DHT22;30969;51.052;17.056;2023-02-01T02:32:47;4.60;87.90
45233;DHT22;30969;51.052;17.056;2023-02-01T02:38:05;4.60;87.60
45233;DHT22;30969;51.052;17.056;2023-02-01T02:43:17;4.50;87.20
45233;DHT22;30969;51.052;17.056;2023-02-01T02:48:44;4.60;86.80
45233;DHT22;30969;51.052;17.056;2023-02-01T02:53:58;4.70;86.40
45233;DHT22;30969;51.052;17.056;2023-02-01T02:59:23;4.70;85.70
45233;DHT22;30969;51.052;17.056;2023-02-01T03:04:45;4.70;84.90
45233;DHT22;30969;51.052;17.056;2023-02-01T03:09:52;4.80;84.60
45233;DHT22;30969;51.052;17.056;2023-02-01T03:14:59;4.80;83.80
45233;DHT22;30969;51.052;17.056;2023-02-01T03:20:05;4.90;83.70
45233;DHT22;30969;51.052;17.056;2023-02-01T03:25:15;5.00;83.20
45233;DHT22;30969;51.052;17.056;2023-02-01T03:30:23;5.00;82.70
45233;DHT22;30969;51.052;17.056;2023-02-01T03:35:32;5.00;82.60
45233;DHT22;30969;51.052;17.056;2023-02-01T03:40:39;5.00;82.20
45233;DHT22;30969;51.052;17.056;2023-02-01T03:45:48;5.00;81.60
45233;DHT22;30969;51.052;17.056;2023-02-01T03:51:00;5.00;81.80
45233;DHT22;30969;51.052;17.056;2023-02-01T03:56:07;5.00;81.30
45233;DHT22;30969;51.052;17.056;2023-02-01T04:01:14;5.10;81.10
45233;DHT22;30969;51.052;17.056;2023-02-01T04:06:18;5.00;80.50
45233;DHT22;30969;51.052;17.056;2023-02-01T04:11:23;5.10;80.50
45233;DHT22;30969;51.052;17.056;2023-02-01T04:16:29;5.00;79.80
45233;DHT22;30969;51.052;17.056;2023-02-01T04:21:33;5.00;79.70
45233;DHT22;30969;51.052;17.056;2023-02-01T04:26:37;5.00;79.60
45233;DHT22;30969;51.052;17.056;2023-02-01T04:31:41;5.00;79.60
45233;DHT22;30969;51.052;17.056;2023-02-01T04:36:45;5.00;79.10
45233;DHT22;30969;51.052;17.056;2023-02-01T04:41:50;4.90;79.10
45233;DHT22;30969;51.052;17.056;2023-02-01T04:46:54;4.90;79.10
45233;DHT22;30969;51.052;17.056;2023-02-01T04:51:57;5.00;79.30
45233;DHT22;30969;51.052;17.056;2023-02-01T04:57:03;5.00;79.20
45233;DHT22;30969;51.052;17.056;2023-02-01T05:02:06;5.10;78.70
45233;DHT22;30969;51.052;17.056;2023-02-01T05:07:10;5.10;78.40
45233;DHT22;30969;51.052;17.056;2023-02-01T05:12:15;5.20;78.20
45233;DHT22;30969;51.052;17.056;2023-02-01T05:17:41;5.30;77.80
45233;DHT22;30969;51.052;17.056;2023-02-01T05:22:45;5.30;76.90
45233;DHT22;30969;51.052;17.056;2023-02-01T05:27:53;5.30;76.80
45233;DHT22;30969;51.052;17.056;2023-02-01T05:32:56;5.40;76.60
45233;DHT22;30969;51.052;17.056;2023-02-01T05:38:00;5.50;75.90
45233;DHT22;30969;51.052;17.056;2023-02-01T05:43:05;5.50;75.40
45233;DHT22;30969;51.052;17.056;2023-02-01T05:48:08;5.50;75.20
45233;DHT22;30969;51.052;17.056;2023-02-01T05:53:12;5.50;74.90
45233;DHT22;30969;51.052;17.056;2023-02-01T05:58:17;5.50;74.70
45233;DHT22;30969;51.052;17.056;2023-02-01T06:03:21;5.50;74.80
45233;DHT22;30969;51.052;17.056;2023-02-01T06:08:25;5.50;74.90
45233;DHT22;30969;51.052;17.056;2023-02-01T06:13:30;5.50;74.90
45233;DHT22;30969;51.052;17.056;2023-02-01T06:18:36;5.60;74.90
45233;DHT22;30969;51.052;17.056;2023-02-01T06:23:39;5.60;74.60
45233;DHT22;30969;51.052;17.056;2023-02-01T06:28:45;5.60;74.60
45233;DHT22;30969;51.052;17.056;2023-02-01T06:33:49;5.60;74.70
45233;DHT22;30969;51.052;17.056;2023-02-01T06:38:55;5.60;74.40
45233;DHT22;30969;51.052;17.056;2023-02-01T06:44:02;5.60;74.00
45233;DHT22;30969;51.052;17.056;2023-02-01T06:49:06;5.70;74.20
45233;DHT22;30969;51.052;17.056;2023-02-01T06:54:10;5.80;74.00
45233;DHT22;30969;51.052;17.056;2023-02-01T06:59:15;5.80;73.60
45233;DHT22;30969;51.052;17.056;2023-02-01T07:04:18;5.80;73.20
45233;DHT22;30969;51.052;17.056;2023-02-01T07:09:22;5.80;73.10
45233;DHT22;30969;51.052;17.056;2023-02-01T07:14:27;5.90;73.20
45233;DHT22;30969;51.052;17.056;2023-02-01T07:19:31;5.90;73.00
45233;DHT22;30969;51.052;17.056;2023-02-01T07:24:35;6.00;72.40
45233;DHT22;30969;51.052;17.056;2023-02-01T07:29:40;6.00;72.50
45233;DHT22;30969;51.052;17.056;2023-02-01T07:34:43;6.10;72.40
45233;DHT22;30969;51.052;17.056;2023-02-01T07:39:47;6.10;72.30
45233;DHT22;30969;51.052;17.056;2023-02-01T07:44:52;6.10;72.30
45233;DHT22;30969;51.052;17.056;2023-02-01T07:49:55;6.10;72.40
45233;DHT22;30969;51.052;17.056;2023-02-01T07:54:59;6.10;72.50
45233;DHT22;30969;51.052;17.056;2023-02-01T08:00:05;6.10;72.90
45233;DHT22;30969;51.052;17.056;2023-02-01T08:05:27;6.10;72.80
45233;DHT22;30969;51.052;17.056;2023-02-01T08:10:30;6.10;73.30
45233;DHT22;30969;51.052;17.056;2023-02-01T08:15:35;6.20;73.60
45233;DHT22;30969;51.052;17.056;2023-02-01T08:20:39;6.20;74.50
45233;DHT22;30969;51.052;17.056;2023-02-01T08:25:44;6.20;73.60
45233;DHT22;30969;51.052;17.056;2023-02-01T08:30:49;6.20;73.50
45233;DHT22;30969;51.052;17.056;2023-02-01T08:35:53;6.20;73.60
45233;DHT22;30969;51.052;17.056;2023-02-01T08:40:56;6.30;73.60
45233;DHT22;30969;51.052;17.056;2023-02-01T08:46:03;6.30;73.60
45233;DHT22;30969;51.052;17.056;2023-02-01T08:51:08;6.30;73.70
45233;DHT22;30969;51.052;17.056;2023-02-01T08:56:16;6.40;73.50
45233;DHT22;30969;51.052;17.056;2023-02-01T09:01:21;6.50;73.40
45233;DHT22;30969;51.052;17.056;2023-02-01T09:06:25;6.50;73.00
45233;DHT22;30969;51.052;17.056;2023-02-01T09:11:28;6.50;73.40
45233;DHT22;30969;51.052;17.056;2023-02-01T09:16:35;6.40;74.10
45233;DHT22;30969;51.052;17.056;2023-02-01T09:21:38;6.40;74.60
45233;DHT22;30969;51.052;17.056;2023-02-01T09:26:42;6.40;74.20
45233;DHT22;30969;51.052;17.056;2023-02-01T09:31:47;6.50;74.60
45233;DHT22;30969;51.052;17.056;2023-02-01T09:37:04;6.50;74.10
45233;DHT22;30969;51.052;17.056;2023-02-01T09:42:19;6.50;74.40
45233;DHT22;30969;51.052;17.056;2023-02-01T09:47:26;6.40;74.80
45233;DHT22;30969;51.052;17.056;2023-02-01T09:52:34;6.30;75.10
45233;DHT22;30969;51.052;17.056;2023-02-01T09:57:44;6.40;74.80
45233;DHT22;30969;51.052;17.056;2023-02-01T10:02:53;6.40;74.90
45233;DHT22;30969;51.052;17.056;2023-02-01T10:08:02;6.40;74.70
45233;DHT22;30969;51.052;17.056;2023-02-01T10:13:15;6.50;75.00
45233;DHT22;30969;51.052;17.056;2023-02-01T10:24:06;6.70;74.40
45233;DHT22;30969;51.052;17.056;2023-02-01T10:29:25;6.70;74.50
45233;DHT22;30969;51.052;17.056;2023-02-01T10:34:35;6.80;73.50
45233;DHT22;30969;51.052;17.056;2023-02-01T10:39:39;6.90;73.30
45233;DHT22;30969;51.052;17.056;2023-02-01T10:44:44;6.90;74.00
45233;DHT22;30969;51.052;17.056;2023-02-01T10:49:56;6.90;72.70
45233;DHT22;30969;51.052;17.056;2023-02-01T10:55:26;7.00;72.90
45233;DHT22;30969;51.052;17.056;2023-02-01T11:00:39;7.00;72.40
45233;DHT22;30969;51.052;17.056;2023-02-01T11:05:46;7.00;72.20
45233;DHT22;30969;51.052;17.056;2023-02-01T11:10:58;7.00;72.50
45233;DHT22;30969;51.052;17.056;2023-02-01T11:16:03;6.90;73.00
45233;DHT22;30969;51.052;17.056;2023-02-01T11:21:11;7.00;73.40
45233;DHT22;30969;51.052;17.056;2023-02-01T11:26:20;7.10;73.50
45233;DHT22;30969;51.052;17.056;2023-02-01T11:31:27;6.90;73.80
45233;DHT22;30969;51.052;17.056;2023-02-01T11:36:33;6.90;74.60
45233;DHT22;30969;51.052;17.056;2023-02-01T11:41:43;6.80;74.90
45233;DHT22;30969;51.052;17.056;2023-02-01T11:46:47;6.90;75.30
45233;DHT22;30969;51.052;17.056;2023-02-01T11:52:03;6.70;75.80
45233;DHT22;30969;51.052;17.056;2023-02-01T11:57:30;6.60;76.20
45233;DHT22;30969;51.052;17.056;2023-02-01T12:03:05;6.60;76.80
45233;DHT22;30969;51.052;17.056;2023-02-01T12:08:37;6.60;77.00
45233;DHT22;30969;51.052;17.056;2023-02-01T12:13:52;6.50;78.00
45233;DHT22;30969;51.052;17.056;2023-02-01T12:36:07;6.30;77.80
45233;DHT22;30969;51.052;17.056;2023-02-01T12:41:24;6.30;78.60
45233;DHT22;30969;51.052;17.056;2023-02-01T12:46:32;6.30;78.60
45233;DHT22;30969;51.052;17.056;2023-02-01T12:51:39;6.30;79.10
45233;DHT22;30969;51.052;17.056;2023-02-01T12:56:47;6.30;79.50
45233;DHT22;30969;51.052;17.056;2023-02-01T13:01:55;6.30;79.50
45233;DHT22;30969;51.052;17.056;2023-02-01T13:07:07;6.20;80.00
45233;DHT22;30969;51.052;17.056;2023-02-01T13:12:17;6.30;80.40
45233;DHT22;30969;51.052;17.056;2023-02-01T13:17:23;6.30;80.40
45233;DHT22;30969;51.052;17.056;2023-02-01T13:22:31;6.40;80.50
45233;DHT22;30969;51.052;17.056;2023-02-01T13:27:38;6.60;80.10
45233;DHT22;30969;51.052;17.056;2023-02-01T13:33:02;6.60;79.70
45233;DHT22;30969;51.052;17.056;2023-02-01T13:38:51;6.50;79.00
45233;DHT22;30969;51.052;17.056;2023-02-01T13:44:01;6.70;79.20
45233;DHT22;30969;51.052;17.056;2023-02-01T13:49:06;6.80;78.80
45233;DHT22;30969;51.052;17.056;2023-02-01T13:54:25;6.80;78.40
45233;DHT22;30969;51.052;17.056;2023-02-01T13:59:51;6.70;79.60
45233;DHT22;30969;51.052;17.056;2023-02-01T14:04:56;6.60;80.80
45233;DHT22;30969;51.052;17.056;2023-02-01T14:10:47;6.60;81.90
45233;DHT22;30969;51.052;17.056;2023-02-01T14:16:14;6.60;81.90
45233;DHT22;30969;51.052;17.056;2023-02-01T14:21:20;6.60;80.70
45233;DHT22;30969;51.052;17.056;2023-02-01T14:26:27;6.40;80.60
45233;DHT22;30969;51.052;17.056;2023-02-01T14:31:53;6.40;81.40
45233;DHT22;30969;51.052;17.056;2023-02-01T14:37:01;6.30;82.10
45233;DHT22;30969;51.052;17.056;2023-02-01T14:47:34;6.40;82.30
45233;DHT22;30969;51.052;17.056;2023-02-01T14:52:40;6.40;81.90
45233;DHT22;30969;51.052;17.056;2023-02-01T14:57:49;6.50;81.00
45233;DHT22;30969;51.052;17.056;2023-02-01T15:03:11;6.50;79.70
45233;DHT22;30969;51.052;17.056;2023-02-01T15:08:24;6.50;79.20
45233;DHT22;30969;51.052;17.056;2023-02-01T15:13:29;6.50;78.80
45233;DHT22;30969;51.052;17.056;2023-02-01T15:18:34;6.50;78.10
45233;DHT22;30969;51.052;17.056;2023-02-01T15:23:37;6.50;78.10
45233;DHT22;30969;51.052;17.056;2023-02-01T15:28:41;6.40;77.90
45233;DHT22;30969;51.052;17.056;2023-02-01T15:33:57;6.40;78.50
45233;DHT22;30969;51.052;17.056;2023-02-01T15:39:16;6.40;78.40
45233;DHT22;30969;51.052;17.056;2023-02-01T15:44:32;6.40;79.00
45233;DHT22;30969;51.052;17.056;2023-02-01T15:49:40;6.40;78.90
45233;DHT22;30969;51.052;17.056;2023-02-01T15:54:47;6.40;78.90
45233;DHT22;30969;51.052;17.056;2023-02-01T15:59:54;6.30;78.60
45233;DHT22;30969;51.052;17.056;2023-02-01T16:05:01;6.30;78.90
45233;DHT22;30969;51.052;17.056;2023-02-01T16:10:26;6.20;79.00
45233;DHT22;30969;51.052;17.056;2023-02-01T16:15:31;6.20;79.30
45233;DHT22;30969;51.052;17.056;2023-02-01T16:20:36;6.20;79.20
45233;DHT22;30969;51.052;17.056;2023-02-01T16:25:41;6.10;79.20
45233;DHT22;30969;51.052;17.056;2023-02-01T16:30:44;6.00;79.40
45233;DHT22;30969;51.052;17.056;2023-02-01T16:35:50;5.90;79.50
45233;DHT22;30969;51.052;17.056;2023-02-01T16:40:54;5.90;79.90
45233;DHT22;30969;51.052;17.056;2023-02-01T16:46:00;6.00;79.90
45233;DHT22;30969;51.052;17.056;2023-02-01T16:51:11;5.90;79.80
45233;DHT22;30969;51.052;17.056;2023-02-01T16:56:18;5.90;80.20
45233;DHT22;30969;51.052;17.056;2023-02-01T17:01:22;5.90;80.10
45233;DHT22;30969;51.052;17.056;2023-02-01T17:06:27;6.00;80.10
45233;DHT22;30969;51.052;17.056;2023-02-01T17:11:31;6.00;81.00
45233;DHT22;30969;51.052;17.056;2023-02-01T17:16:35;6.00;80.80
45233;DHT22;30969;51.052;17.056;2023-02-01T17:21:41;6.10;79.60
45233;DHT22;30969;51.052;17.056;2023-02-01T17:26:46;6.20;79.40
45233;DHT22;30969;51.052;17.056;2023-02-01T17:31:52;6.30;79.10
45233;DHT22;30969;51.052;17.056;2023-02-01T17:36:58;6.20;77.80
45233;DHT22;30969;51.052;17.056;2023-02-01T17:42:02;6.10;78.00
45233;DHT22;30969;51.052;17.056;2023-02-01T17:47:06;5.90;77.80
45233;DHT22;30969;51.052;17.056;2023-02-01T17:52:15;5.90;78.50
45233;DHT22;30969;51.052;17.056;2023-02-01T17:57:19;5.90;78.60
45233;DHT22;30969;51.052;17.056;2023-02-01T18:02:24;6.00;78.20
45233;DHT22;30969;51.052;17.056;2023-02-01T18:07:29;6.00;78.20
45233;DHT22;30969;51.052;17.056;2023-02-01T18:12:33;6.10;77.40
45233;DHT22;30969;51.052;17.056;2023-02-01T18:17:39;6.00;75.60
45233;DHT22;30969;51.052;17.056;2023-02-01T18:22:44;6.00;75.60
45233;DHT22;30969;51.052;17.056;2023-02-01T18:27:50;6.10;75.50
45233;DHT22;30969;51.052;17.056;2023-02-01T18:32:54;6.20;75.30
45233;DHT22;30969;51.052;17.056;2023-02-01T18:37:59;6.30;74.80
45233;DHT22;30969;51.052;17.056;2023-02-01T18:43:03;6.20;75.00
45233;DHT22;30969;51.052;17.056;2023-02-01T18:48:08;6.20;76.20
45233;DHT22;30969;51.052;17.056;2023-02-01T18:53:15;6.30;76.20
45233;DHT22;30969;51.052;17.056;2023-02-01T18:58:21;6.40;76.10
45233;DHT22;30969;51.052;17.056;2023-02-01T19:03:27;6.50;77.00
45233;DHT22;30969;51.052;17.056;2023-02-01T19:08:32;6.60;75.60
45233;DHT22;30969;51.052;17.056;2023-02-01T19:13:36;6.70;75.30
45233;DHT22;30969;51.052;17.056;2023-02-01T19:18:40;6.70;74.90
45233;DHT22;30969;51.052;17.056;2023-02-01T19:23:44;6.70;74.90
45233;DHT22;30969;51.052;17.056;2023-02-01T19:28:48;6.70;74.60
45233;DHT22;30969;51.052;17.056;2023-02-01T19:33:53;6.70;74.40
45233;DHT22;30969;51.052;17.056;2023-02-01T19:38:58;6.70;74.40
45233;DHT22;30969;51.052;17.056;2023-02-01T19:44:01;6.70;74.20
45233;DHT22;30969;51.052;17.056;2023-02-01T19:49:05;6.70;74.20
45233;DHT22;30969;51.052;17.056;2023-02-01T19:54:14;6.70;73.60
45233;DHT22;30969;51.052;17.056;2023-02-01T19:59:18;6.60;72.80
45233;DHT22;30969;51.052;17.056;2023-02-01T20:04:25;6.50;72.80
45233;DHT22;30969;51.052;17.056;2023-02-01T20:09:31;6.40;73.70
45233;DHT22;30969;51.052;17.056;2023-02-01T20:14:37;6.20;74.90
45233;DHT22;30969;51.052;17.056;2023-02-01T20:19:41;6.10;76.30
45233;DHT22;30969;51.052;17.056;2023-02-01T20:24:46;5.90;77.60
45233;DHT22;30969;51.052;17.056;2023-02-01T20:29:49;5.70;79.20
45233;DHT22;30969;51.052;17.056;2023-02-01T20:34:52;5.40;80.90
45233;DHT22;30969;51.052;17.056;2023-02-01T20:39:57;5.10;82.30
45233;DHT22;30969;51.052;17.056;2023-02-01T20:45:01;5.00;82.40
45233;DHT22;30969;51.052;17.056;2023-02-01T20:50:05;4.90;82.90
45233;DHT22;30969;51.052;17.056;2023-02-01T20:55:10;4.80;82.80
45233;DHT22;30969;51.052;17.056;2023-02-01T21:00:14;4.80;83.10
45233;DHT22;30969;51.052;17.056;2023-02-01T21:05:19;4.70;83.00
45233;DHT22;30969;51.052;17.056;2023-02-01T21:10:24;4.50;83.50
45233;DHT22;30969;51.052;17.056;2023-02-01T21:15:28;4.50;84.10
45233;DHT22;30969;51.052;17.056;2023-02-01T21:20:32;4.50;84.50
45233;DHT22;30969;51.052;17.056;2023-02-01T21:25:39;4.50;85.30
45233;DHT22;30969;51.052;17.056;2023-02-01T21:30:43;4.20;86.10
45233;DHT22;30969;51.052;17.056;2023-02-01T21:35:49;4.20;86.80
45233;DHT22;30969;51.052;17.056;2023-02-01T21:40:55;4.20;87.10
45233;DHT22;30969;51.052;17.056;2023-02-01T21:46:12;4.30;87.80
45233;DHT22;30969;51.052;17.056;2023-02-01T21:51:15;4.20;88.40
45233;DHT22;30969;51.052;17.056;2023-02-01T21:56:21;4.20;88.50
45233;DHT22;30969;51.052;17.056;2023-02-01T22:01:25;4.20;88.70
45233;DHT22;30969;51.052;17.056;2023-02-01T22:06:30;4.30;88.30
45233;DHT22;30969;51.052;17.056;2023-02-01T22:11:36;4.40;88.50
45233;DHT22;30969;51.052;17.056;2023-02-01T22:16:40;4.50;88.60
45233;DHT22;30969;51.052;17.056;2023-02-01T22:21:46;4.50;88.20
45233;DHT22;30969;51.052;17.056;2023-02-01T22:26:51;4.60;88.10
45233;DHT22;30969;51.052;17.056;2023-02-01T22:31:54;4.70;88.20
45233;DHT22;30969;51.052;17.056;2023-02-01T22:36:58;4.70;88.50
45233;DHT22;30969;51.052;17.056;2023-02-01T22:42:03;4.70;89.40
45233;DHT22;30969;51.052;17.056;2023-02-01T22:47:07;4.80;88.40
45233;DHT22;30969;51.052;17.056;2023-02-01T22:52:11;4.80;88.10
45233;DHT22;30969;51.052;17.056;2023-02-01T22:57:16;4.90;88.00
45233;DHT22;30969;51.052;17.056;2023-02-01T23:02:19;4.80;88.10
45233;DHT22;30969;51.052;17.056;2023-02-01T23:07:23;4.80;89.30
45233;DHT22;30969;51.052;17.056;2023-02-01T23:12:27;4.80;88.50
45233;DHT22;30969;51.052;17.056;2023-02-01T23:17:32;4.80;88.50
45233;DHT22;30969;51.052;17.056;2023-02-01T23:22:36;4.90;88.20
45233;DHT22;30969;51.052;17.056;2023-02-01T23:27:41;5.00;87.80
45233;DHT22;30969;51.052;17.056;2023-02-01T23:32:45;5.00;87.60
45233;DHT22;30969;51.052;17.056;2023-02-01T23:37:48;5.00;88.00
45233;DHT22;30969;51.052;17.056;2023-02-01T23:42:53;5.20;86.80
45233;DHT22;30969;51.052;17.056;2023-02-01T23:48:10;5.20;86.10
45233;DHT22;30969;51.052;17.056;2023-02-01T23:53:14;5.10;85.70
45233;DHT22;30969;51.052;17.056;2023-02-01T23:58:19;5.10;86.00
